sensor_id;sensor_type;location;lat;lon;timestamp;P1;durP1;ratioP1;P2;durP2;ratioP2
13834;SDS011;6988;52.614;13.500;2024-01-15T00:02:25;16.97;;;12.20;;
13834;SDS011;6988;52.614;13.500;2024-01-15T00:07:17;16.63;;;11.70;;
13834;SDS011;6988;52.614;13.500;2024-01-15T00:12:09;17.50;;;12.10;;
13834;SDS011;6988;52.614;13.500;2024-01-15T00:17:01;16.20;;;11.93;;
13834;SDS011;6988;52.614;13.500;2024-01-15T00:21:54;17.63;;;12.10;;
13834;SDS011;6988;52.614;13.500;2024-01-15T00:26:47;18.03;;;12.40;;
13834;SDS011;6988;52.614;13.500;2024-01-15T00:31:39;15.30;;;11.07;;
13834;SDS011;6988;52.614;13.500;2024-01-15T00:36:31;16.13;;;11.37;;
13834;SDS011;6988;52.614;13.500;2024-01-15T00:41:25;15.93;;;11.43;;
13834;SDS011;6988;52.614;13.500;2024-01-15T00:46:18;17.13;;;11.60;;
13834;SDS011;6988;52.614;13.500;2024-01-15T00:51:10;14.97;;;11.17;;
13834;SDS011;6988;52.614;13.500;2024-01-15T00:56:02;15.80;;;10.83;;
13834;SDS011;6988;52.614;13.500;2024-01-15T01:00:58;14.43;;;10.90;;
13834;SDS011;6988;52.614;13.500;2024-01-15T01:05:50;16.53;;;11.60;;
13834;SDS011;6988;52.614;13.500;2024-01-15T01:10:42;16.77;;;11.00;;
13834;SDS011;6988;52.614;13.500;2024-01-15T01:15:34;15.13;;;11.13;;
13834;SDS011;6988;52.614;13.500;2024-01-15T01:20:28;17.63;;;12.30;;
13834;SDS011;6988;52.614;13.500;2024-01-15T01:25:20;18.23;;;11.63;;
13834;SDS011;6988;52.614;13.500;2024-01-15T01:30:13;16.60;;;11.30;;
13834;SDS011;6988;52.614;13.500;2024-01-15T01:35:05;17.00;;;11.83;;
13834;SDS011;6988;52.614;13.500;2024-01-15T01:39:59;18.43;;;11.67;;
13834;SDS011;6988;52.614;13.500;2024-01-15T01:44:51;16.33;;;11.30;;
13834;SDS011;6988;52.614;13.500;2024-01-15T01:49:43;15.97;;;10.87;;
13834;SDS011;6988;52.614;13.500;2024-01-15T01:54:35;16.07;;;10.33;;
13834;SDS011;6988;52.614;13.500;2024-01-15T01:59:32;16.03;;;10.50;;
13834;SDS011;6988;52.614;13.500;2024-01-15T02:04:27;15.97;;;9.60;;
13834;SDS011;6988;52.614;13.500;2024-01-15T02:09:19;13.87;;;9.37;;
13834;SDS011;6988;52.614;13.500;2024-01-15T02:14:12;14.33;;;9.73;;
13834;SDS011;6988;52.614;13.500;2024-01-15T02:19:06;13.40;;;9.20;;
13834;SDS011;6988;52.614;13.500;2024-01-15T02:23:59;14.17;;;8.80;;
13834;SDS011;6988;52.614;13.500;2024-01-15T02:28:51;14.63;;;9.07;;
13834;SDS011;6988;52.614;13.500;2024-01-15T02:33:44;16.13;;;8.80;;
13834;SDS011;6988;52.614;13.500;2024-01-15T02:38:36;12.37;;;8.60;;
13834;SDS011;6988;52.614;13.500;2024-01-15T02:43:30;13.93;;;7.87;;
13834;SDS011;6988;52.614;13.500;2024-01-15T02:48:21;13.03;;;8.13;;
13834;SDS011;6988;52.614;13.500;2024-01-15T02:53:14;14.17;;;7.37;;
13834;SDS011;6988;52.614;13.500;2024-01-15T02:58:06;12.47;;;7.27;;
13834;SDS011;6988;52.614;13.500;2024-01-15T03:03:00;8.87;;;6.37;;
13834;SDS011;6988;52.614;13.500;2024-01-15T03:07:52;11.80;;;6.77;;
13834;SDS011;6988;52.614;13.500;2024-01-15T03:12:44;10.47;;;6.17;;
13834;SDS011;6988;52.614;13.500;2024-01-15T03:17:36;10.40;;;6.10;;
13834;SDS011;6988;52.614;13.500;2024-01-15T03:22:29;8.30;;;6.00;;
13834;SDS011;6988;52.614;13.500;2024-01-15T03:27:21;8.67;;;5.53;;
13834;SDS011;6988;52.614;13.500;2024-01-15T03:32:16;10.00;;;6.27;;
13834;SDS011;6988;52.614;13.500;2024-01-15T03:37:08;14.37;;;6.40;;
13834;SDS011;6988;52.614;13.500;2024-01-15T03:42:01;9.33;;;5.60;;
13834;SDS011;6988;52.614;13.500;2024-01-15T03:46:54;9.53;;;5.77;;
13834;SDS011;6988;52.614;13.500;2024-01-15T03:51:46;12.20;;;6.30;;
13834;SDS011;6988;52.614;13.500;2024-01-15T03:56:38;9.77;;;6.10;;
13834;SDS011;6988;52.614;13.500;2024-01-15T04:01:31;9.90;;;5.63;;
13834;SDS011;6988;52.614;13.500;2024-01-15T04:06:23;10.90;;;5.70;;
13834;SDS011;6988;52.614;13.500;2024-01-15T04:11:15;10.50;;;5.60;;
13834;SDS011;6988;52.614;13.500;2024-01-15T04:16:07;12.37;;;6.00;;
13834;SDS011;6988;52.614;13.500;2024-01-15T04:21:00;10.13;;;5.23;;
13834;SDS011;6988;52.614;13.500;2024-01-15T04:25:55;11.63;;;5.70;;
13834;SDS011;6988;52.614;13.500;2024-01-15T04:30:47;11.13;;;5.53;;
13834;SDS011;6988;52.614;13.500;2024-01-15T04:35:39;10.40;;;4.67;;
13834;SDS011;6988;52.614;13.500;2024-01-15T04:40:32;8.23;;;4.80;;
13834;SDS011;6988;52.614;13.500;2024-01-15T04:45:24;11.27;;;4.83;;
13834;SDS011;6988;52.614;13.500;2024-01-15T04:50:18;12.23;;;4.90;;
13834;SDS011;6988;52.614;13.500;2024-01-15T04:55:10;11.50;;;4.30;;
13834;SDS011;6988;52.614;13.500;2024-01-15T05:00:06;8.20;;;4.60;;
13834;SDS011;6988;52.614;13.500;2024-01-15T05:04:59;8.33;;;3.90;;
13834;SDS011;6988;52.614;13.500;2024-01-15T05:09:51;10.20;;;4.40;;
13834;SDS011;6988;52.614;13.500;2024-01-15T05:14:42;8.80;;;4.17;;
13834;SDS011;6988;52.614;13.500;2024-01-15T05:19:35;8.27;;;3.60;;
13834;SDS011;6988;52.614;13.500;2024-01-15T05:24:27;9.00;;;3.30;;
13834;SDS011;6988;52.614;13.500;2024-01-15T05:29:19;9.10;;;3.30;;
13834;SDS011;6988;52.614;13.500;2024-01-15T05:34:11;6.50;;;3.10;;
13834;SDS011;6988;52.614;13.500;2024-01-15T05:39:04;10.70;;;3.83;;
13834;SDS011;6988;52.614;13.500;2024-01-15T05:43:57;12.60;;;3.40;;
13834;SDS011;6988;52.614;13.500;2024-01-15T05:48:49;9.83;;;2.87;;
13834;SDS011;6988;52.614;13.500;2024-01-15T05:53:41;7.90;;;2.30;;
13834;SDS011;6988;52.614;13.500;2024-01-15T05:58:35;10.77;;;2.47;;
13834;SDS011;6988;52.614;13.500;2024-01-15T06:03:27;8.13;;;2.10;;
13834;SDS011;6988;52.614;13.500;2024-01-15T06:08:19;5.47;;;1.93;;
13834;SDS011;6988;52.614;13.500;2024-01-15T06:13:11;8.63;;;2.30;;
13834;SDS011;6988;52.614;13.500;2024-01-15T06:18:05;5.47;;;1.80;;
13834;SDS011;6988;52.614;13.500;2024-01-15T06:22:57;8.53;;;1.90;;
13834;SDS011;6988;52.614;13.500;2024-01-15T06:27:49;8.27;;;2.07;;
13834;SDS011;6988;52.614;13.500;2024-01-15T06:32:41;4.57;;;2.13;;
13834;SDS011;6988;52.614;13.500;2024-01-15T06:37:34;4.10;;;1.70;;
13834;SDS011;6988;52.614;13.500;2024-01-15T06:42:27;7.47;;;2.03;;
13834;SDS011;6988;52.614;13.500;2024-01-15T06:47:19;8.60;;;1.87;;
13834;SDS011;6988;52.614;13.500;2024-01-15T06:52:11;8.83;;;2.00;;
13834;SDS011;6988;52.614;13.500;2024-01-15T06:57:05;10.63;;;2.20;;
13834;SDS011;6988;52.614;13.500;2024-01-15T07:01:57;7.50;;;1.80;;
13834;SDS011;6988;52.614;13.500;2024-01-15T07:06:49;5.97;;;2.10;;
13834;SDS011;6988;52.614;13.500;2024-01-15T07:11:44;9.17;;;1.83;;
13834;SDS011;6988;52.614;13.500;2024-01-15T07:16:38;7.27;;;1.87;;
13834;SDS011;6988;52.614;13.500;2024-01-15T07:21:29;7.97;;;1.70;;
13834;SDS011;6988;52.614;13.500;2024-01-15T07:26:21;6.93;;;2.00;;
13834;SDS011;6988;52.614;13.500;2024-01-15T07:31:14;8.60;;;2.33;;
13834;SDS011;6988;52.614;13.500;2024-01-15T07:36:10;9.60;;;2.10;;
13834;SDS011;6988;52.614;13.500;2024-01-15T07:41:02;7.70;;;1.70;;
13834;SDS011;6988;52.614;13.500;2024-01-15T07:45:55;6.23;;;1.90;;
13834;SDS011;6988;52.614;13.500;2024-01-15T07:50:47;10.23;;;2.03;;
13834;SDS011;6988;52.614;13.500;2024-01-15T07:55:40;12.63;;;2.40;;
13834;SDS011;6988;52.614;13.500;2024-01-15T08:00:32;9.20;;;2.23;;
13834;SDS011;6988;52.614;13.500;2024-01-15T08:05:24;10.10;;;2.10;;
13834;SDS011;6988;52.614;13.500;2024-01-15T08:10:16;10.53;;;2.00;;
13834;SDS011;6988;52.614;13.500;2024-01-15T08:15:10;8.93;;;2.07;;
13834;SDS011;6988;52.614;13.500;2024-01-15T08:20:02;12.70;;;2.40;;
13834;SDS011;6988;52.614;13.500;2024-01-15T08:24:55;11.67;;;2.00;;
13834;SDS011;6988;52.614;13.500;2024-01-15T08:29:47;10.77;;;2.00;;
13834;SDS011;6988;52.614;13.500;2024-01-15T08:34:40;7.87;;;1.60;;
13834;SDS011;6988;52.614;13.500;2024-01-15T08:39:32;8.23;;;2.17;;
13834;SDS011;6988;52.614;13.500;2024-01-15T08:44:23;7.43;;;1.70;;
13834;SDS011;6988;52.614;13.500;2024-01-15T08:49:15;8.47;;;1.70;;
13834;SDS011;6988;52.614;13.500;2024-01-15T08:54:09;9.90;;;1.90;;
13834;SDS011;6988;52.614;13.500;2024-01-15T08:59:00;7.57;;;1.87;;
13834;SDS011;6988;52.614;13.500;2024-01-15T09:03:53;8.00;;;2.17;;
13834;SDS011;6988;52.614;13.500;2024-01-15T09:08:44;7.33;;;1.87;;
13834;SDS011;6988;52.614;13.500;2024-01-15T09:13:38;5.47;;;1.80;;
13834;SDS011;6988;52.614;13.500;2024-01-15T09:18:30;8.60;;;1.83;;
13834;SDS011;6988;52.614;13.500;2024-01-15T09:23:21;8.20;;;1.60;;
13834;SDS011;6988;52.614;13.500;2024-01-15T09:28:13;11.63;;;2.27;;
13834;SDS011;6988;52.614;13.500;2024-01-15T09:33:07;10.50;;;1.90;;
13834;SDS011;6988;52.614;13.500;2024-01-15T09:37:59;6.27;;;1.67;;
13834;SDS011;6988;52.614;13.500;2024-01-15T09:42:51;7.27;;;1.97;;
13834;SDS011;6988;52.614;13.500;2024-01-15T09:47:44;6.40;;;1.87;;
13834;SDS011;6988;52.614;13.500;2024-01-15T09:52:37;10.03;;;2.00;;
13834;SDS011;6988;52.614;13.500;2024-01-15T09:57:31;6.60;;;1.73;;
13834;SDS011;6988;52.614;13.500;2024-01-15T10:02:23;5.40;;;1.40;;
13834;SDS011;6988;52.614;13.500;2024-01-15T10:07:15;8.73;;;1.93;;
13834;SDS011;6988;52.614;13.500;2024-01-15T10:12:10;7.23;;;2.00;;
13834;SDS011;6988;52.614;13.500;2024-01-15T10:17:10;7.43;;;1.73;;
13834;SDS011;6988;52.614;13.500;2024-01-15T10:22:05;6.53;;;1.50;;
13834;SDS011;6988;52.614;13.500;2024-01-15T10:27:04;6.17;;;1.97;;
13834;SDS011;6988;52.614;13.500;2024-01-15T10:31:59;4.80;;;1.70;;
13834;SDS011;6988;52.614;13.500;2024-01-15T10:36:52;5.83;;;1.90;;
13834;SDS011;6988;52.614;13.500;2024-01-15T10:41:46;4.87;;;1.30;;
13834;SDS011;6988;52.614;13.500;2024-01-15T10:46:38;5.43;;;1.40;;
13834;SDS011;6988;52.614;13.500;2024-01-15T10:51:32;5.37;;;1.43;;
13834;SDS011;6988;52.614;13.500;2024-01-15T10:56:24;4.80;;;1.60;;
13834;SDS011;6988;52.614;13.500;2024-01-15T11:01:18;3.47;;;1.30;;
13834;SDS011;6988;52.614;13.500;2024-01-15T11:06:16;5.77;;;1.83;;
13834;SDS011;6988;52.614;13.500;2024-01-15T11:11:11;5.70;;;1.70;;
13834;SDS011;6988;52.614;13.500;2024-01-15T11:16:03;4.83;;;1.47;;
13834;SDS011;6988;52.614;13.500;2024-01-15T11:26:28;5.00;;;1.00;;
13834;SDS011;6988;52.614;13.500;2024-01-15T11:31:27;1.83;;;0.80;;
13834;SDS011;6988;52.614;13.500;2024-01-15T11:36:19;3.57;;;0.93;;
13834;SDS011;6988;52.614;13.500;2024-01-15T11:41:13;5.87;;;1.10;;
13834;SDS011;6988;52.614;13.500;2024-01-15T11:46:07;3.87;;;1.30;;
13834;SDS011;6988;52.614;13.500;2024-01-15T11:51:03;5.43;;;1.20;;
13834;SDS011;6988;52.614;13.500;2024-01-15T11:55:57;3.87;;;1.10;;
13834;SDS011;6988;52.614;13.500;2024-01-15T12:00:52;1.93;;;0.80;;
13834;SDS011;6988;52.614;13.500;2024-01-15T12:05:46;2.27;;;0.80;;
13834;SDS011;6988;52.614;13.500;2024-01-15T12:10:38;1.70;;;0.77;;
13834;SDS011;6988;52.614;13.500;2024-01-15T12:15:31;1.77;;;1.00;;
13834;SDS011;6988;52.614;13.500;2024-01-15T12:20:24;1.53;;;1.00;;
13834;SDS011;6988;52.614;13.500;2024-01-15T12:25:17;2.50;;;1.00;;
13834;SDS011;6988;52.614;13.500;2024-01-15T12:30:10;3.00;;;1.20;;
13834;SDS011;6988;52.614;13.500;2024-01-15T12:35:04;2.40;;;0.90;;
13834;SDS011;6988;52.614;13.500;2024-01-15T12:39:58;1.87;;;0.90;;
13834;SDS011;6988;52.614;13.500;2024-01-15T12:44:52;2.77;;;0.87;;
13834;SDS011;6988;52.614;13.500;2024-01-15T12:49:46;1.27;;;0.70;;
13834;SDS011;6988;52.614;13.500;2024-01-15T12:54:40;2.27;;;0.80;;
13834;SDS011;6988;52.614;13.500;2024-01-15T12:59:32;1.50;;;0.77;;
13834;SDS011;6988;52.614;13.500;2024-01-15T13:04:27;0.93;;;0.63;;
13834;SDS011;6988;52.614;13.500;2024-01-15T13:09:19;1.60;;;0.80;;
13834;SDS011;6988;52.614;13.500;2024-01-15T13:14:11;0.87;;;0.63;;
13834;SDS011;6988;52.614;13.500;2024-01-15T13:19:04;1.73;;;0.80;;
13834;SDS011;6988;52.614;13.500;2024-01-15T13:23:58;1.47;;;1.13;;
13834;SDS011;6988;52.614;13.500;2024-01-15T13:28:50;1.07;;;0.80;;
13834;SDS011;6988;52.614;13.500;2024-01-15T13:33:45;3.17;;;1.10;;
13834;SDS011;6988;52.614;13.500;2024-01-15T13:38:36;2.13;;;1.10;;
13834;SDS011;6988;52.614;13.500;2024-01-15T13:43:30;2.07;;;1.00;;
13834;SDS011;6988;52.614;13.500;2024-01-15T13:48:22;3.30;;;1.20;;
13834;SDS011;6988;52.614;13.500;2024-01-15T13:53:14;1.93;;;1.10;;
13834;SDS011;6988;52.614;13.500;2024-01-15T13:58:06;1.90;;;0.97;;
13834;SDS011;6988;52.614;13.500;2024-01-15T14:02:59;2.00;;;1.00;;
13834;SDS011;6988;52.614;13.500;2024-01-15T14:07:51;3.70;;;1.20;;
13834;SDS011;6988;52.614;13.500;2024-01-15T14:12:43;2.47;;;1.23;;
13834;SDS011;6988;52.614;13.500;2024-01-15T14:17:35;2.30;;;1.00;;
13834;SDS011;6988;52.614;13.500;2024-01-15T14:22:29;2.43;;;1.13;;
13834;SDS011;6988;52.614;13.500;2024-01-15T14:27:21;3.07;;;1.60;;
13834;SDS011;6988;52.614;13.500;2024-01-15T14:32:13;3.63;;;1.20;;
13834;SDS011;6988;52.614;13.500;2024-01-15T14:37:05;4.67;;;1.33;;
13834;SDS011;6988;52.614;13.500;2024-01-15T14:41:58;3.03;;;1.20;;
13834;SDS011;6988;52.614;13.500;2024-01-15T14:46:50;2.27;;;1.30;;
13834;SDS011;6988;52.614;13.500;2024-01-15T14:51:42;4.37;;;1.47;;
13834;SDS011;6988;52.614;13.500;2024-01-15T14:56:35;4.63;;;1.70;;
13834;SDS011;6988;52.614;13.500;2024-01-15T15:01:28;1.73;;;1.20;;
13834;SDS011;6988;52.614;13.500;2024-01-15T15:06:21;4.77;;;1.40;;
13834;SDS011;6988;52.614;13.500;2024-01-15T15:11:17;1.93;;;1.20;;
13834;SDS011;6988;52.614;13.500;2024-01-15T15:16:09;4.60;;;1.27;;
13834;SDS011;6988;52.614;13.500;2024-01-15T15:21:02;2.53;;;1.30;;
13834;SDS011;6988;52.614;13.500;2024-01-15T15:25:54;3.37;;;1.20;;
13834;SDS011;6988;52.614;13.500;2024-01-15T15:30:46;2.73;;;1.27;;
13834;SDS011;6988;52.614;13.500;2024-01-15T15:35:38;3.93;;;1.60;;
13834;SDS011;6988;52.614;13.500;2024-01-15T15:40:31;5.00;;;1.40;;
13834;SDS011;6988;52.614;13.500;2024-01-15T15:45:23;3.70;;;1.50;;
13834;SDS011;6988;52.614;13.500;2024-01-15T15:50:15;3.20;;;1.30;;
13834;SDS011;6988;52.614;13.500;2024-01-15T15:55:07;3.07;;;1.30;;
13834;SDS011;6988;52.614;13.500;2024-01-15T16:00:01;2.77;;;1.30;;
13834;SDS011;6988;52.614;13.500;2024-01-15T16:05:02;5.30;;;1.73;;
13834;SDS011;6988;52.614;13.500;2024-01-15T16:09:59;3.43;;;1.40;;
13834;SDS011;6988;52.614;13.500;2024-01-15T16:14:51;4.17;;;1.50;;
13834;SDS011;6988;52.614;13.500;2024-01-15T16:19:44;3.30;;;1.40;;
13834;SDS011;6988;52.614;13.500;2024-01-15T16:24:36;3.67;;;1.53;;
13834;SDS011;6988;52.614;13.500;2024-01-15T16:29:29;3.50;;;1.63;;
13834;SDS011;6988;52.614;13.500;2024-01-15T16:34:21;4.20;;;1.83;;
13834;SDS011;6988;52.614;13.500;2024-01-15T16:39:14;3.23;;;1.60;;
13834;SDS011;6988;52.614;13.500;2024-01-15T16:44:06;5.57;;;2.20;;
13834;SDS011;6988;52.614;13.500;2024-01-15T16:48:58;7.10;;;2.43;;
13834;SDS011;6988;52.614;13.500;2024-01-15T16:53:52;5.87;;;2.20;;
13834;SDS011;6988;52.614;13.500;2024-01-15T16:58:45;6.07;;;2.40;;
13834;SDS011;6988;52.614;13.500;2024-01-15T17:03:40;4.60;;;2.10;;
13834;SDS011;6988;52.614;13.500;2024-01-15T17:08:32;4.40;;;2.40;;
13834;SDS011;6988;52.614;13.500;2024-01-15T17:13:24;5.47;;;2.23;;
13834;SDS011;6988;52.614;13.500;2024-01-15T17:18:18;6.67;;;2.23;;
13834;SDS011;6988;52.614;13.500;2024-01-15T17:23:10;7.00;;;2.53;;
13834;SDS011;6988;52.614;13.500;2024-01-15T17:28:02;5.77;;;2.67;;
13834;SDS011;6988;52.614;13.500;2024-01-15T17:32:54;19.87;;;9.77;;
13834;SDS011;6988;52.614;13.500;2024-01-15T17:37:48;8.77;;;4.33;;
13834;SDS011;6988;52.614;13.500;2024-01-15T17:42:40;5.90;;;2.03;;
13834;SDS011;6988;52.614;13.500;2024-01-15T17:47:31;3.10;;;1.60;;
13834;SDS011;6988;52.614;13.500;2024-01-15T17:52:23;4.70;;;2.20;;
13834;SDS011;6988;52.614;13.500;2024-01-15T17:57:17;6.03;;;2.33;;
13834;SDS011;6988;52.614;13.500;2024-01-15T18:02:09;7.20;;;2.30;;
13834;SDS011;6988;52.614;13.500;2024-01-15T18:07:01;4.70;;;1.70;;
13834;SDS011;6988;52.614;13.500;2024-01-15T18:11:53;8.57;;;3.80;;
13834;SDS011;6988;52.614;13.500;2024-01-15T18:16:51;5.50;;;2.67;;
13834;SDS011;6988;52.614;13.500;2024-01-15T18:21:43;5.90;;;2.37;;
13834;SDS011;6988;52.614;13.500;2024-01-15T18:26:36;4.30;;;1.63;;
13834;SDS011;6988;52.614;13.500;2024-01-15T18:31:29;3.57;;;1.40;;
13834;SDS011;6988;52.614;13.500;2024-01-15T18:36:23;5.33;;;1.40;;
13834;SDS011;6988;52.614;13.500;2024-01-15T18:41:19;6.40;;;2.03;;
13834;SDS011;6988;52.614;13.500;2024-01-15T18:46:11;3.97;;;1.70;;
13834;SDS011;6988;52.614;13.500;2024-01-15T18:51:03;6.10;;;2.43;;
13834;SDS011;6988;52.614;13.500;2024-01-15T18:55:56;3.30;;;1.40;;
13834;SDS011;6988;52.614;13.500;2024-01-15T19:00:48;3.27;;;1.70;;
13834;SDS011;6988;52.614;13.500;2024-01-15T19:05:40;6.33;;;2.00;;
13834;SDS011;6988;52.614;13.500;2024-01-15T19:10:33;5.00;;;1.27;;
13834;SDS011;6988;52.614;13.500;2024-01-15T19:15:28;3.67;;;1.40;;
13834;SDS011;6988;52.614;13.500;2024-01-15T19:20:20;5.57;;;2.13;;
13834;SDS011;6988;52.614;13.500;2024-01-15T19:25:12;4.63;;;1.90;;
13834;SDS011;6988;52.614;13.500;2024-01-15T19:30:04;6.60;;;2.23;;
13834;SDS011;6988;52.614;13.500;2024-01-15T19:34:59;5.23;;;2.10;;
13834;SDS011;6988;52.614;13.500;2024-01-15T19:39:51;3.50;;;1.80;;
13834;SDS011;6988;52.614;13.500;2024-01-15T19:44:43;5.47;;;1.80;;
13834;SDS011;6988;52.614;13.500;2024-01-15T19:49:35;4.83;;;1.50;;
13834;SDS011;6988;52.614;13.500;2024-01-15T19:54:31;2.30;;;1.20;;
13834;SDS011;6988;52.614;13.500;2024-01-15T19:59:23;4.53;;;1.47;;
13834;SDS011;6988;52.614;13.500;2024-01-15T20:04:15;4.07;;;1.50;;
13834;SDS011;6988;52.614;13.500;2024-01-15T20:09:07;4.43;;;1.30;;
13834;SDS011;6988;52.614;13.500;2024-01-15T20:14:01;3.20;;;1.57;;
13834;SDS011;6988;52.614;13.500;2024-01-15T20:18:53;5.37;;;2.10;;
13834;SDS011;6988;52.614;13.500;2024-01-15T20:23:45;4.97;;;1.77;;
13834;SDS011;6988;52.614;13.500;2024-01-15T20:28:38;3.40;;;1.47;;
13834;SDS011;6988;52.614;13.500;2024-01-15T20:33:32;4.70;;;1.47;;
13834;SDS011;6988;52.614;13.500;2024-01-15T20:38:24;4.23;;;1.60;;
13834;SDS011;6988;52.614;13.500;2024-01-15T20:43:16;4.23;;;1.77;;
13834;SDS011;6988;52.614;13.500;2024-01-15T20:48:07;5.40;;;2.00;;
13834;SDS011;6988;52.614;13.500;2024-01-15T20:53:01;5.23;;;1.90;;
13834;SDS011;6988;52.614;13.500;2024-01-15T20:57:54;3.50;;;2.13;;
13834;SDS011;6988;52.614;13.500;2024-01-15T21:02:46;6.13;;;1.50;;
13834;SDS011;6988;52.614;13.500;2024-01-15T21:07:37;5.23;;;1.73;;
13834;SDS011;6988;52.614;13.500;2024-01-15T21:12:31;6.23;;;1.80;;
13834;SDS011;6988;52.614;13.500;2024-01-15T21:17:23;4.27;;;1.93;;
13834;SDS011;6988;52.614;13.500;2024-01-15T21:22:14;12.37;;;4.97;;
13834;SDS011;6988;52.614;13.500;2024-01-15T21:27:07;8.27;;;2.73;;
13834;SDS011;6988;52.614;13.500;2024-01-15T21:32:00;5.07;;;1.83;;
13834;SDS011;6988;52.614;13.500;2024-01-15T21:36:52;4.07;;;1.20;;
13834;SDS011;6988;52.614;13.500;2024-01-15T21:41:43;12.30;;;6.70;;
13834;SDS011;6988;52.614;13.500;2024-01-15T21:46:37;7.37;;;2.20;;
13834;SDS011;6988;52.614;13.500;2024-01-15T21:51:30;3.37;;;1.50;;
13834;SDS011;6988;52.614;13.500;2024-01-15T21:56:22;4.90;;;1.53;;
13834;SDS011;6988;52.614;13.500;2024-01-15T22:01:14;6.40;;;2.53;;
13834;SDS011;6988;52.614;13.500;2024-01-15T22:06:06;6.00;;;3.07;;
13834;SDS011;6988;52.614;13.500;2024-01-15T22:11:00;3.03;;;1.50;;
13834;SDS011;6988;52.614;13.500;2024-01-15T22:15:53;6.27;;;2.17;;
13834;SDS011;6988;52.614;13.500;2024-01-15T22:20:45;5.83;;;1.97;;
13834;SDS011;6988;52.614;13.500;2024-01-15T22:25:36;4.27;;;1.80;;
13834;SDS011;6988;52.614;13.500;2024-01-15T22:30:30;5.47;;;1.60;;
13834;SDS011;6988;52.614;13.500;2024-01-15T22:35:21;4.40;;;1.60;;
13834;SDS011;6988;52.614;13.500;2024-01-15T22:40:15;5.23;;;1.50;;
13834;SDS011;6988;52.614;13.500;2024-01-15T23:03:48;6.73;;;1.53;;
13834;SDS011;6988;52.614;13.500;2024-01-15T23:08:40;3.40;;;1.40;;
13834;SDS011;6988;52.614;13.500;2024-01-15T23:13:32;5.30;;;2.33;;
13834;SDS011;6988;52.614;13.500;2024-01-15T23:18:24;7.90;;;3.43;;
13834;SDS011;6988;52.614;13.500;2024-01-15T23:23:17;7.10;;;3.40;;
13834;SDS011;6988;52.614;13.500;2024-01-15T23:28:09;5.20;;;1.80;;
13834;SDS011;6988;52.614;13.500;2024-01-15T23:33:01;5.53;;;1.57;;
13834;SDS011;6988;52.614;13.500;2024-01-15T23:37:53;4.57;;;1.60;;
13834;SDS011;6988;52.614;13.500;2024-01-15T23:42:46;3.90;;;1.50;;
13834;SDS011;6988;52.614;13.500;2024-01-15T23:47:38;3.90;;;1.60;;
13834;SDS011;6988;52.614;13.500;2024-01-15T23:52:30;4.80;;;2.57;;
13834;SDS011;6988;52.614;13.500;2024-01-15T23:57:22;6.10;;;3.00;;
